createdAt,value
2023-03-15T00:01:48.716Z,9.13
2023-03-15T00:04:17.204Z,8.57
2023-03-15T00:06:46.862Z,6.53
2023-03-15T00:09:15.212Z,9.47
2023-03-15T00:11:43.706Z,13.67
2023-03-15T00:14:12.321Z,13.27
2023-03-15T00:16:42.974Z,7.87
2023-03-15T00:19:11.921Z,14.33
2023-03-15T00:21:44.585Z,16.67
2023-03-15T00:24:14.316Z,9.57
2023-03-15T00:26:42.605Z,17.87
2023-03-15T00:29:11.096Z,14.03
2023-03-15T00:31:39.496Z,11.73
2023-03-15T00:34:07.779Z,12.60
2023-03-15T00:36:36.251Z,9.97
2023-03-15T00:39:05.729Z,17.93
2023-03-15T00:41:36.095Z,10.40
2023-03-15T00:44:05.165Z,12.60
2023-03-15T00:46:33.567Z,11.50
2023-03-15T00:49:01.896Z,12.23
2023-03-15T00:51:30.451Z,13.47
2023-03-15T00:53:58.760Z,12.60
2023-03-15T00:56:30.128Z,16.53
2023-03-15T00:59:01.186Z,18.57
2023-03-15T01:01:31.813Z,18.07
2023-03-15T01:04:00.163Z,14.73
2023-03-15T01:06:30.172Z,19.00
2023-03-15T01:09:01.801Z,15.90
2023-03-15T01:11:30.516Z,16.20
2023-03-15T01:14:01.076Z,21.30
2023-03-15T01:16:29.929Z,15.57
2023-03-15T01:18:58.463Z,18.93
2023-03-15T01:21:26.940Z,15.30
2023-03-15T01:23:56.013Z,20.60
2023-03-15T01:26:25.124Z,16.57
2023-03-15T01:28:53.507Z,21.87
2023-03-15T01:31:25.597Z,19.80
2023-03-15T01:33:54.725Z,19.80
2023-03-15T01:36:23.462Z,16.43
2023-03-15T01:38:52.473Z,18.17
2023-03-15T01:41:27.614Z,21.30
2023-03-15T01:43:56.354Z,24.27
2023-03-15T01:46:34.754Z,22.60
2023-03-15T01:49:26.630Z,30.97
2023-03-15T01:51:59.691Z,20.40
2023-03-15T01:54:41.691Z,22.13
2023-03-15T01:57:14.522Z,24.33
2023-03-15T01:59:50.308Z,24.43
2023-03-15T02:02:22.831Z,22.87
2023-03-15T02:04:58.057Z,23.23
2023-03-15T02:07:28.939Z,27.93
2023-03-15T02:10:03.372Z,30.97
2023-03-15T02:12:39.471Z,18.63
2023-03-15T02:15:09.446Z,22.20
2023-03-15T02:17:41.914Z,16.03
2023-03-15T02:20:20.305Z,12.67
2023-03-15T02:22:54.870Z,11.07
2023-03-15T02:25:32.752Z,9.47
2023-03-15T02:28:04.599Z,8.97
2023-03-15T02:30:33.251Z,12.83
2023-03-15T02:33:04.645Z,11.77
2023-03-15T02:35:34.449Z,16.10
2023-03-15T02:38:03.614Z,13.10
2023-03-15T02:40:32.459Z,11.70
2023-03-15T02:43:08.109Z,14.00
2023-03-15T02:45:39.699Z,13.53
2023-03-15T02:48:10.984Z,14.83
2023-03-15T02:50:39.784Z,14.80
2023-03-15T02:53:08.105Z,13.00
2023-03-15T02:55:37.364Z,13.03
2023-03-15T02:58:07.660Z,16.53
2023-03-15T03:00:36.096Z,19.63
2023-03-15T03:03:04.587Z,18.10
2023-03-15T03:05:33.930Z,22.63
2023-03-15T03:08:02.848Z,18.13
2023-03-15T03:10:31.559Z,21.53
2023-03-15T03:13:02.079Z,20.27
2023-03-15T03:15:38.445Z,18.27
2023-03-15T03:18:07.004Z,15.47
2023-03-15T03:20:35.349Z,19.40
2023-03-15T03:23:06.142Z,18.97
2023-03-15T03:25:36.846Z,18.07
2023-03-15T03:28:07.579Z,20.37
2023-03-15T03:30:36.736Z,19.57
2023-03-15T03:33:06.951Z,22.57
2023-03-15T03:35:35.629Z,18.80
2023-03-15T03:38:04.063Z,20.57
2023-03-15T03:40:37.614Z,21.37
2023-03-15T03:43:07.681Z,20.70
2023-03-15T03:45:36.868Z,17.17
2023-03-15T03:48:07.710Z,18.10
2023-03-15T03:50:36.436Z,19.20
2023-03-15T03:53:04.879Z,17.47
2023-03-15T03:55:35.865Z,19.97
2023-03-15T03:58:04.233Z,18.23
2023-03-15T04:00:46.633Z,17.70
2023-03-15T04:03:16.425Z,19.90
2023-03-15T04:05:48.867Z,20.40
2023-03-15T04:08:21.596Z,20.63
2023-03-15T04:10:54.659Z,18.90
2023-03-15T04:13:25.344Z,21.73
2023-03-15T04:15:57.713Z,18.27
2023-03-15T04:18:30.905Z,17.60
2023-03-15T04:20:59.327Z,21.57
2023-03-15T04:23:27.939Z,22.27
2023-03-15T04:26:19.334Z,21.07
2023-03-15T04:29:04.399Z,21.97
2023-03-15T04:32:01.687Z,24.03
2023-03-15T04:34:52.768Z,21.60
2023-03-15T04:37:44.100Z,22.43
2023-03-15T04:40:42.880Z,22.13
2023-03-15T04:43:40.164Z,20.37
2023-03-15T04:46:31.742Z,21.73
2023-03-15T04:49:19.756Z,20.57
2023-03-15T04:51:59.024Z,21.97
2023-03-15T04:54:40.503Z,27.43
2023-03-15T04:57:38.482Z,22.63
2023-03-15T05:00:39.356Z,20.57
2023-03-15T05:03:30.327Z,19.10
2023-03-15T05:06:18.588Z,22.77
2023-03-15T05:09:19.372Z,23.17
2023-03-15T05:12:02.358Z,23.83
2023-03-15T05:14:58.200Z,20.60
2023-03-15T05:17:46.616Z,20.23
2023-03-15T05:20:34.936Z,26.33
2023-03-15T05:23:26.576Z,23.20
2023-03-15T05:26:11.240Z,27.97
2023-03-15T05:28:45.948Z,22.27
2023-03-15T05:31:21.052Z,22.77
2023-03-15T05:34:15.484Z,21.13
2023-03-15T05:37:02.513Z,25.07
2023-03-15T05:39:52.017Z,25.07
2023-03-15T05:42:40.232Z,24.30
2023-03-15T05:45:37.471Z,23.43
2023-03-15T05:48:44.314Z,26.17
2023-03-15T05:51:32.872Z,26.23
2023-03-15T05:54:19.824Z,23.83
2023-03-15T05:57:03.110Z,24.70
2023-03-15T05:59:38.620Z,24.63
2023-03-15T06:02:07.409Z,21.37
2023-03-15T06:04:44.137Z,23.93
2023-03-15T06:07:16.827Z,27.70
2023-03-15T06:09:45.257Z,25.70
2023-03-15T06:12:13.717Z,24.57
2023-03-15T06:14:44.355Z,24.03
2023-03-15T06:17:13.418Z,28.47
2023-03-15T06:19:45.143Z,26.37
2023-03-15T06:22:13.694Z,25.57
2023-03-15T06:24:52.656Z,25.03
2023-03-15T06:27:22.332Z,26.43
2023-03-15T06:29:54.160Z,27.67
2023-03-15T06:32:24.775Z,31.57
2023-03-15T06:34:53.463Z,26.07
2023-03-15T06:37:34.336Z,28.73
2023-03-15T06:40:06.071Z,28.23
2023-03-15T06:42:35.011Z,31.73
2023-03-15T06:45:06.073Z,25.97
2023-03-15T06:47:34.616Z,28.53
2023-03-15T06:50:06.287Z,28.10
2023-03-15T06:52:35.006Z,28.53
2023-03-15T06:55:03.824Z,30.47
2023-03-15T06:57:32.454Z,32.07
2023-03-15T07:00:00.866Z,35.60
2023-03-15T07:02:37.150Z,31.63
2023-03-15T07:05:06.584Z,30.13
2023-03-15T07:07:35.108Z,32.50
2023-03-15T07:10:03.780Z,29.97
2023-03-15T07:12:32.266Z,28.43
2023-03-15T07:15:00.852Z,33.63
2023-03-15T07:17:30.769Z,29.67
2023-03-15T07:19:59.190Z,35.50
2023-03-15T07:22:27.938Z,32.30
2023-03-15T07:24:56.452Z,35.63
2023-03-15T07:27:25.113Z,34.80
2023-03-15T07:29:55.527Z,35.60
2023-03-15T07:32:24.275Z,35.03
2023-03-15T07:34:58.340Z,34.70
2023-03-15T07:37:26.860Z,42.80
2023-03-15T07:39:55.756Z,38.23
2023-03-15T07:42:24.339Z,34.40
2023-03-15T07:44:57.348Z,34.73
2023-03-15T07:47:25.837Z,32.70
2023-03-15T07:49:55.615Z,33.70
2023-03-15T07:52:24.422Z,34.77
2023-03-15T07:54:53.417Z,33.77
2023-03-15T07:57:22.114Z,34.40
2023-03-15T07:59:52.467Z,35.70
2023-03-15T08:02:21.070Z,29.03
2023-03-15T08:04:51.440Z,38.40
2023-03-15T08:07:21.224Z,32.70
2023-03-15T08:09:49.677Z,36.27
2023-03-15T08:12:18.114Z,32.27
2023-03-15T08:14:46.625Z,28.27
2023-03-15T08:17:16.366Z,28.90
2023-03-15T08:19:45.456Z,27.33
2023-03-15T08:22:14.031Z,30.70
2023-03-15T08:24:45.504Z,27.77
2023-03-15T08:27:13.975Z,26.33
2023-03-15T08:29:43.039Z,34.20
2023-03-15T08:32:11.595Z,26.17
2023-03-15T08:34:40.183Z,26.33
2023-03-15T08:37:08.830Z,28.90
2023-03-15T08:39:37.519Z,26.17
2023-03-15T08:42:08.231Z,21.03
2023-03-15T08:44:36.750Z,24.67
2023-03-15T08:47:06.325Z,24.37
2023-03-15T08:49:35.380Z,21.93
2023-03-15T08:52:04.042Z,22.50
2023-03-15T08:54:32.821Z,21.87
2023-03-15T08:57:01.378Z,29.93
2023-03-15T08:59:32.925Z,25.97
2023-03-15T09:02:01.724Z,28.57
2023-03-15T09:04:30.464Z,25.23
2023-03-15T09:06:59.110Z,24.77
2023-03-15T09:09:28.474Z,21.27
2023-03-15T09:11:57.116Z,20.47
2023-03-15T09:14:25.569Z,22.30
2023-03-15T09:16:55.616Z,19.13
2023-03-15T09:19:24.150Z,17.53
2023-03-15T09:21:52.780Z,22.20
2023-03-15T09:24:21.205Z,20.70
2023-03-15T09:26:49.831Z,11.00
2023-03-15T09:29:18.303Z,16.87
2023-03-15T09:31:46.846Z,15.53
2023-03-15T09:34:17.105Z,17.73
2023-03-15T09:36:47.233Z,12.23
2023-03-15T09:39:17.014Z,12.60
2023-03-15T09:41:48.780Z,16.33
2023-03-15T09:44:30.975Z,12.67
2023-03-15T09:47:10.324Z,10.93
2023-03-15T09:49:47.878Z,9.83
2023-03-15T09:52:28.032Z,13.10
2023-03-15T09:55:01.333Z,15.83
2023-03-15T09:57:41.289Z,9.07
2023-03-15T10:00:17.378Z,10.70
2023-03-15T10:02:53.353Z,12.40
2023-03-15T10:05:27.478Z,14.73
2023-03-15T10:07:56.114Z,15.03
2023-03-15T10:10:32.011Z,16.13
2023-03-15T10:13:08.788Z,12.50
2023-03-15T10:15:45.013Z,11.00
2023-03-15T10:18:28.022Z,7.73
2023-03-15T10:21:07.512Z,10.57
2023-03-15T10:23:46.567Z,10.67
2023-03-15T10:26:19.573Z,12.33
2023-03-15T10:28:49.028Z,8.53
2023-03-15T10:31:32.964Z,9.67
2023-03-15T10:34:11.805Z,7.70
2023-03-15T10:36:46.342Z,13.20
2023-03-15T10:39:15.478Z,9.90
2023-03-15T10:41:45.801Z,8.20
2023-03-15T10:44:17.261Z,12.07
2023-03-15T10:47:07.103Z,7.60
2023-03-15T10:49:41.138Z,13.93
2023-03-15T10:52:31.818Z,6.90
2023-03-15T10:55:04.523Z,11.53
2023-03-15T10:57:39.170Z,6.00
2023-03-15T11:00:24.401Z,8.27
2023-03-15T11:03:04.620Z,12.37
2023-03-15T11:05:43.016Z,6.70
2023-03-15T11:08:16.452Z,8.57
2023-03-15T11:10:47.117Z,6.10
2023-03-15T11:13:22.096Z,8.87
2023-03-15T11:16:01.519Z,7.47
2023-03-15T11:18:33.681Z,11.97
2023-03-15T11:21:06.920Z,7.93
2023-03-15T11:23:40.450Z,10.33
2023-03-15T11:26:29.584Z,6.73
2023-03-15T11:29:02.597Z,5.13
2023-03-15T11:31:32.444Z,11.53
2023-03-15T11:34:05.822Z,4.50
2023-03-15T11:36:38.310Z,5.47
2023-03-15T11:39:12.710Z,6.50
2023-03-15T11:41:45.733Z,4.77
2023-03-15T11:44:24.531Z,7.23
2023-03-15T11:46:59.167Z,7.47
2023-03-15T11:49:36.670Z,7.07
2023-03-15T11:52:06.657Z,6.00
2023-03-15T11:54:36.589Z,9.70
2023-03-15T11:57:07.580Z,4.47
2023-03-15T11:59:40.175Z,5.73
2023-03-15T12:02:37.779Z,6.30
2023-03-15T12:05:17.876Z,9.23
2023-03-15T12:08:18.928Z,8.17
2023-03-15T12:10:50.955Z,5.67
2023-03-15T12:13:27.201Z,7.73
2023-03-15T12:15:56.277Z,8.27
2023-03-15T12:18:32.501Z,4.30
2023-03-15T12:21:11.026Z,6.27
2023-03-15T12:23:44.379Z,9.50
2023-03-15T12:26:26.461Z,6.93
2023-03-15T12:29:06.915Z,5.13
2023-03-15T12:31:47.688Z,5.87
2023-03-15T12:34:24.152Z,5.90
2023-03-15T12:36:57.360Z,6.13
2023-03-15T12:39:42.743Z,7.40
2023-03-15T12:42:57.562Z,5.97
2023-03-15T12:45:46.624Z,4.33
2023-03-15T12:48:59.045Z,5.43
2023-03-15T12:51:43.878Z,6.53
2023-03-15T12:54:17.241Z,4.90
2023-03-15T12:56:51.798Z,5.47
2023-03-15T12:59:34.315Z,10.57
2023-03-15T13:02:04.539Z,7.50
2023-03-15T13:04:33.268Z,6.20
2023-03-15T13:07:30.579Z,6.73
2023-03-15T13:10:23.639Z,7.17
2023-03-15T13:12:59.052Z,6.23
2023-03-15T13:15:34.831Z,8.83
2023-03-15T13:18:18.153Z,6.10
2023-03-15T13:21:00.685Z,5.80
2023-03-15T13:23:30.801Z,5.97
2023-03-15T13:26:21.063Z,5.53
2023-03-15T13:28:52.279Z,5.20
2023-03-15T13:31:24.907Z,4.23
2023-03-15T13:33:57.525Z,4.00
2023-03-15T13:36:28.525Z,3.97
2023-03-15T13:38:58.755Z,3.70
2023-03-15T13:41:29.264Z,11.93
2023-03-15T13:43:59.673Z,5.20
2023-03-15T13:46:31.819Z,4.60
2023-03-15T13:49:02.633Z,5.37
2023-03-15T13:51:34.107Z,7.03
2023-03-15T13:54:05.795Z,3.80
2023-03-15T13:56:48.885Z,9.20
2023-03-15T13:59:20.140Z,4.83
2023-03-15T14:01:54.144Z,4.00
2023-03-15T14:04:24.523Z,5.20
2023-03-15T14:07:07.979Z,8.03
2023-03-15T14:09:36.788Z,4.87
2023-03-15T14:12:07.945Z,4.40
2023-03-15T14:14:39.977Z,10.13
2023-03-15T14:17:21.937Z,5.23
2023-03-15T14:19:55.536Z,9.10
2023-03-15T14:22:24.832Z,6.83
2023-03-15T14:24:54.208Z,4.57
2023-03-15T14:27:26.638Z,7.67
2023-03-15T14:29:58.973Z,4.93
2023-03-15T14:32:31.985Z,5.30
2023-03-15T14:35:04.886Z,7.00
2023-03-15T14:37:37.920Z,10.33
2023-03-15T14:40:21.145Z,4.27
2023-03-15T14:42:51.645Z,10.00
2023-03-15T14:45:22.281Z,5.83
2023-03-15T14:47:57.517Z,8.47
2023-03-15T14:50:28.961Z,7.03
2023-03-15T14:52:59.375Z,4.83
2023-03-15T14:55:33.641Z,3.03
2023-03-15T14:58:02.820Z,5.83
2023-03-15T15:00:31.295Z,4.60
2023-03-15T15:03:01.603Z,4.63
2023-03-15T15:05:31.879Z,3.13
2023-03-15T15:08:05.321Z,4.77
2023-03-15T15:10:35.010Z,2.87
2023-03-15T15:13:06.763Z,3.93
2023-03-15T15:15:51.860Z,4.70
2023-03-15T15:18:25.845Z,7.97
2023-03-15T15:20:56.217Z,5.40
2023-03-15T15:23:27.969Z,5.30
2023-03-15T15:25:59.592Z,4.00
2023-03-15T15:28:37.570Z,3.30
2023-03-15T15:31:07.650Z,7.40
2023-03-15T15:33:37.636Z,3.50
2023-03-15T15:36:12.443Z,2.83
2023-03-15T15:38:41.806Z,4.10
2023-03-15T15:41:16.176Z,4.83
2023-03-15T15:43:44.965Z,4.57
2023-03-15T15:46:13.644Z,6.00
2023-03-15T15:48:43.636Z,7.23
2023-03-15T15:51:24.169Z,3.67
2023-03-15T15:53:53.622Z,3.60
2023-03-15T15:56:23.696Z,5.83
2023-03-15T15:58:52.222Z,7.20
2023-03-15T16:01:20.809Z,5.40
2023-03-15T16:03:50.678Z,4.50
2023-03-15T16:06:21.781Z,5.07
2023-03-15T16:08:52.073Z,3.93
2023-03-15T16:11:22.236Z,3.00
2023-03-15T16:13:53.946Z,6.13
2023-03-15T16:16:22.657Z,5.60
2023-03-15T16:18:52.609Z,7.80
2023-03-15T16:21:29.618Z,7.30
2023-03-15T16:24:02.533Z,9.70
2023-03-15T16:26:31.207Z,3.23
2023-03-15T16:29:00.933Z,7.37
2023-03-15T16:31:30.130Z,5.37
2023-03-15T16:34:00.078Z,4.50
2023-03-15T16:36:28.790Z,4.33
2023-03-15T16:38:57.453Z,2.57
2023-03-15T16:41:26.442Z,6.20
2023-03-15T16:43:55.077Z,6.50
2023-03-15T16:46:23.622Z,7.70
2023-03-15T16:48:52.107Z,3.90
2023-03-15T16:51:21.858Z,6.80
2023-03-15T16:53:50.421Z,3.87
2023-03-15T16:56:19.031Z,4.10
2023-03-15T16:58:52.604Z,6.03
2023-03-15T17:01:21.403Z,8.00
2023-03-15T17:03:50.113Z,4.30
2023-03-15T17:06:23.472Z,4.53
2023-03-15T17:08:58.676Z,2.70
2023-03-15T17:11:30.100Z,5.67
2023-03-15T17:14:00.509Z,1.83
2023-03-15T17:16:29.559Z,2.10
2023-03-15T17:18:58.316Z,5.93
2023-03-15T17:21:29.015Z,8.57
2023-03-15T17:23:59.423Z,5.20
2023-03-15T17:26:31.745Z,3.83
2023-03-15T17:29:01.094Z,3.37
2023-03-15T17:31:30.968Z,4.30
2023-03-15T17:34:02.541Z,7.50
2023-03-15T17:36:37.699Z,8.43
2023-03-15T17:39:10.695Z,2.37
2023-03-15T17:41:45.364Z,1.60
2023-03-15T17:44:14.085Z,4.03
2023-03-15T17:46:43.159Z,5.43
2023-03-15T17:49:13.434Z,6.53
2023-03-15T17:51:42.864Z,7.43
2023-03-15T17:54:18.545Z,5.20
2023-03-15T17:56:47.586Z,7.03
2023-03-15T17:59:16.976Z,5.20
2023-03-15T18:01:48.976Z,3.50
2023-03-15T18:04:20.359Z,3.53
2023-03-15T18:06:49.747Z,5.53
2023-03-15T18:09:22.473Z,5.57
2023-03-15T18:11:51.724Z,7.43
2023-03-15T18:14:21.215Z,8.30
2023-03-15T18:16:50.772Z,4.30
2023-03-15T18:19:19.580Z,6.97
2023-03-15T18:21:48.723Z,6.97
2023-03-15T18:24:19.889Z,7.77
2023-03-15T18:26:49.016Z,8.40
2023-03-15T18:29:17.946Z,4.90
2023-03-15T18:31:47.414Z,6.13
2023-03-15T18:34:17.372Z,4.87
2023-03-15T18:36:46.109Z,4.97
2023-03-15T18:39:14.832Z,5.90
2023-03-15T18:41:44.808Z,3.50
2023-03-15T18:44:13.270Z,7.27
2023-03-15T18:46:44.001Z,4.97
2023-03-15T18:49:12.505Z,7.97
2023-03-15T18:51:41.612Z,4.10
2023-03-15T18:54:10.473Z,7.93
2023-03-15T18:56:39.028Z,5.93
2023-03-15T18:59:08.902Z,9.30
2023-03-15T19:01:38.507Z,4.33
2023-03-15T19:04:07.215Z,5.73
2023-03-15T19:06:35.722Z,8.57
2023-03-15T19:09:05.561Z,5.63
2023-03-15T19:11:38.254Z,4.43
2023-03-15T19:14:08.230Z,7.17
2023-03-15T19:16:36.800Z,4.73
2023-03-15T19:19:05.514Z,4.30
2023-03-15T19:21:34.014Z,8.37
2023-03-15T19:24:02.870Z,7.57
2023-03-15T19:26:31.256Z,6.20
2023-03-15T19:28:59.728Z,4.33
2023-03-15T19:31:29.930Z,5.00
2023-03-15T19:33:58.589Z,7.20
2023-03-15T19:36:27.160Z,7.07
2023-03-15T19:38:55.498Z,5.50
2023-03-15T19:41:24.205Z,8.10
2023-03-15T19:43:52.964Z,9.73
2023-03-15T19:46:22.157Z,9.43
2023-03-15T19:48:51.997Z,7.33
2023-03-15T19:51:21.084Z,8.00
2023-03-15T19:53:49.534Z,9.13
2023-03-15T19:56:17.914Z,4.73
2023-03-15T19:58:46.271Z,6.00
2023-03-15T20:01:16.100Z,7.50
2023-03-15T20:03:44.612Z,10.97
2023-03-15T20:06:15.242Z,7.43
2023-03-15T20:08:43.796Z,9.17
2023-03-15T20:11:15.197Z,10.40
2023-03-15T20:13:44.064Z,6.90
2023-03-15T20:16:12.755Z,16.87
2023-03-15T20:18:41.321Z,7.90
2023-03-15T20:21:09.743Z,12.13
2023-03-15T20:23:39.596Z,6.87
2023-03-15T20:26:10.957Z,8.73
2023-03-15T20:28:40.363Z,9.07
2023-03-15T20:31:10.082Z,9.27
2023-03-15T20:33:38.573Z,10.13
2023-03-15T20:36:07.529Z,8.73
2023-03-15T20:38:37.359Z,6.70
2023-03-15T20:41:08.548Z,7.03
2023-03-15T20:43:37.400Z,9.27
2023-03-15T20:46:06.071Z,5.50
2023-03-15T20:48:36.058Z,8.63
2023-03-15T20:51:05.297Z,8.93
2023-03-15T20:53:36.072Z,6.37
2023-03-15T20:56:07.078Z,10.20
2023-03-15T20:58:36.283Z,10.53
2023-03-15T21:01:06.838Z,12.60
2023-03-15T21:03:38.494Z,7.70
2023-03-15T21:06:08.381Z,12.17
2023-03-15T21:08:38.471Z,7.60
2023-03-15T21:11:11.970Z,5.23
2023-03-15T21:13:41.388Z,7.73
2023-03-15T21:16:10.749Z,12.07
2023-03-15T21:18:40.408Z,11.50
2023-03-15T21:21:11.181Z,8.53
2023-03-15T21:23:40.339Z,10.27
2023-03-15T21:26:13.531Z,7.57
2023-03-15T21:28:43.292Z,12.73
2023-03-15T21:31:15.845Z,5.57
2023-03-15T21:33:45.107Z,4.50
2023-03-15T21:36:14.353Z,9.53
2023-03-15T21:38:43.548Z,7.80
2023-03-15T21:41:14.566Z,9.93
2023-03-15T21:43:43.664Z,12.03
2023-03-15T21:46:14.480Z,11.03
2023-03-15T21:48:43.842Z,8.87
2023-03-15T21:51:14.624Z,6.00
2023-03-15T21:53:43.593Z,12.97
2023-03-15T21:56:14.017Z,25.83
2023-03-15T21:58:43.103Z,6.83
2023-03-15T22:01:14.003Z,10.90
2023-03-15T22:03:44.352Z,4.87
2023-03-15T22:06:13.863Z,6.97
2023-03-15T22:08:42.860Z,8.53
2023-03-15T22:11:11.449Z,5.83
2023-03-15T22:13:41.816Z,6.30
2023-03-15T22:16:10.645Z,6.27
2023-03-15T22:18:39.222Z,13.90
2023-03-15T22:21:08.166Z,10.40
2023-03-15T22:23:36.757Z,8.87
2023-03-15T22:26:05.123Z,10.90
2023-03-15T22:28:35.229Z,6.53
2023-03-15T22:31:07.648Z,6.93
2023-03-15T22:33:36.177Z,8.13
2023-03-15T22:36:04.992Z,6.93
2023-03-15T22:38:38.101Z,9.00
2023-03-15T22:41:08.596Z,5.93
2023-03-15T22:43:38.957Z,5.23
2023-03-15T22:46:08.900Z,6.57
2023-03-15T22:48:37.329Z,9.33
2023-03-15T22:51:07.948Z,8.70
2023-03-15T22:53:36.392Z,8.63
2023-03-15T22:56:05.083Z,9.03
2023-03-15T22:58:33.669Z,7.20
2023-03-15T23:01:02.557Z,11.53
2023-03-15T23:03:34.847Z,5.83
2023-03-15T23:06:03.347Z,7.20
2023-03-15T23:08:31.820Z,7.10
2023-03-15T23:11:00.439Z,8.20
2023-03-15T23:13:29.020Z,11.90
2023-03-15T23:15:57.436Z,8.57
2023-03-15T23:18:25.881Z,9.37
2023-03-15T23:21:05.848Z,7.63
2023-03-15T23:23:34.276Z,5.10
2023-03-15T23:26:03.982Z,7.70
2023-03-15T23:28:32.662Z,9.37
2023-03-15T23:31:02.917Z,11.33
2023-03-15T23:33:34.270Z,7.27
2023-03-15T23:36:05.819Z,4.70
2023-03-15T23:38:35.002Z,4.90
2023-03-15T23:41:05.165Z,5.10
2023-03-15T23:43:34.685Z,4.20
2023-03-15T23:46:04.979Z,7.30
2023-03-15T23:48:36.256Z,7.50
2023-03-15T23:51:06.273Z,6.93
2023-03-15T23:53:34.734Z,7.27
2023-03-15T23:56:03.184Z,9.83
2023-03-15T23:58:31.593Z,6.77
